sensor_id;sensor_type;location;lat;lon;timestamp;pressure;altitude;pressure_sealevel;temperature;humidity
13080;BME280;6606;49.154;9.280;2022-09-04T00:00:10;99581.84;;;16.90;100.00
13080;BME280;6606;49.154;9.280;2022-09-04T00:02:58;99578.09;;;16.81;100.00
13080;BME280;6606;49.154;9.280;2022-09-04T00:05:30;99583.44;;;16.81;100.00
13080;BME280;6606;49.154;9.280;2022-09-04T00:08:31;99579.16;;;16.79;100.00
13080;BME280;6606;49.154;9.280;2022-09-04T00:11:07;99580.03;;;16.79;100.00
13080;BME280;6606;49.154;9.280;2022-09-04T00:13:41;99570.91;;;16.82;100.00
13080;BME280;6606;49.154;9.280;2022-09-04T00:16:14;99575.06;;;16.86;100.00
13080;BME280;6606;49.154;9.280;2022-09-04T00:18:50;99580.78;;;16.92;100.00
13080;BME280;6606;49.154;9.280;2022-09-04T00:21:26;99583.09;;;16.97;100.00
13080;BME280;6606;49.154;9.280;2022-09-04T00:23:59;99581.38;;;16.96;100.00
13080;BME280;6606;49.154;9.280;2022-09-04T00:26:38;99579.69;;;16.95;100.00
13080;BME280;6606;49.154;9.280;2022-09-04T00:29:13;99579.31;;;17.00;100.00
13080;BME280;6606;49.154;9.280;2022-09-04T00:31:43;99587.13;;;17.03;100.00
13080;BME280;6606;49.154;9.280;2022-09-04T00:34:23;99578.34;;;17.01;100.00
13080;BME280;6606;49.154;9.280;2022-09-04T00:36:58;99575.81;;;16.99;100.00
13080;BME280;6606;49.154;9.280;2022-09-04T00:39:32;99581.66;;;17.04;100.00
13080;BME280;6606;49.154;9.280;2022-09-04T00:42:07;99582.34;;;17.06;100.00
13080;BME280;6606;49.154;9.280;2022-09-04T00:44:57;99582.13;;;17.09;100.00
13080;BME280;6606;49.154;9.280;2022-09-04T00:47:46;99583.84;;;17.10;100.00
13080;BME280;6606;49.154;9.280;2022-09-04T00:53:27;99583.44;;;17.04;100.00
13080;BME280;6606;49.154;9.280;2022-09-04T00:56:11;99583.09;;;16.97;100.00
13080;BME280;6606;49.154;9.280;2022-09-04T00:58:49;99589.88;;;16.90;100.00
13080;BME280;6606;49.154;9.280;2022-09-04T01:01:21;99593.41;;;16.90;100.00
13080;BME280;6606;49.154;9.280;2022-09-04T01:04:03;99607.28;;;16.84;100.00
13080;BME280;6606;49.154;9.280;2022-09-04T01:06:40;99612.03;;;16.81;100.00
13080;BME280;6606;49.154;9.280;2022-09-04T01:09:22;99615.03;;;16.76;100.00
13080;BME280;6606;49.154;9.280;2022-09-04T01:12:06;99612.69;;;16.71;100.00
13080;BME280;6606;49.154;9.280;2022-09-04T01:14:38;99611.94;;;16.69;100.00
13080;BME280;6606;49.154;9.280;2022-09-04T01:17:13;99613.91;;;16.67;100.00
13080;BME280;6606;49.154;9.280;2022-09-04T01:19:51;99615.84;;;16.65;100.00
13080;BME280;6606;49.154;9.280;2022-09-04T01:22:41;99626.78;;;16.62;100.00
13080;BME280;6606;49.154;9.280;2022-09-04T01:25:26;99618.09;;;16.47;100.00
13080;BME280;6606;49.154;9.280;2022-09-04T01:28:02;99622.31;;;16.39;100.00
13080;BME280;6606;49.154;9.280;2022-09-04T01:30:36;99621.06;;;16.32;100.00
13080;BME280;6606;49.154;9.280;2022-09-04T01:33:14;99620.31;;;16.30;100.00
13080;BME280;6606;49.154;9.280;2022-09-04T01:35:51;99631.03;;;16.30;100.00
13080;BME280;6606;49.154;9.280;2022-09-04T01:38:27;99633.19;;;16.24;100.00
13080;BME280;6606;49.154;9.280;2022-09-04T01:41:01;99641.97;;;16.26;100.00
13080;BME280;6606;49.154;9.280;2022-09-04T01:43:30;99638.78;;;16.21;100.00
13080;BME280;6606;49.154;9.280;2022-09-04T01:46:11;99641.34;;;16.23;100.00
13080;BME280;6606;49.154;9.280;2022-09-04T01:48:44;99642.41;;;16.20;100.00
13080;BME280;6606;49.154;9.280;2022-09-04T01:51:19;99640.94;;;16.16;100.00
13080;BME280;6606;49.154;9.280;2022-09-04T01:53:57;99640.22;;;16.14;100.00
13080;BME280;6606;49.154;9.280;2022-09-04T01:56:32;99643.09;;;16.11;100.00
13080;BME280;6606;49.154;9.280;2022-09-04T01:59:09;99646.97;;;16.07;100.00
13080;BME280;6606;49.154;9.280;2022-09-04T02:01:41;99641.84;;;16.04;100.00
13080;BME280;6606;49.154;9.280;2022-09-04T02:04:15;99630.66;;;15.99;100.00
13080;BME280;6606;49.154;9.280;2022-09-04T02:06:53;99635.25;;;15.97;100.00
13080;BME280;6606;49.154;9.280;2022-09-04T02:09:31;99630.56;;;15.88;100.00
13080;BME280;6606;49.154;9.280;2022-09-04T02:12:07;99635.97;;;15.75;100.00
13080;BME280;6606;49.154;9.280;2022-09-04T02:14:40;99636.28;;;15.70;100.00
13080;BME280;6606;49.154;9.280;2022-09-04T02:17:16;99637.03;;;15.59;100.00
13080;BME280;6606;49.154;9.280;2022-09-04T02:19:56;99640.97;;;15.67;100.00
13080;BME280;6606;49.154;9.280;2022-09-04T02:22:33;99642.38;;;15.72;100.00
13080;BME280;6606;49.154;9.280;2022-09-04T02:25:05;99638.72;;;15.73;100.00
13080;BME280;6606;49.154;9.280;2022-09-04T02:27:42;99641.53;;;15.72;100.00
13080;BME280;6606;49.154;9.280;2022-09-04T02:30:13;99648.56;;;15.73;100.00
13080;BME280;6606;49.154;9.280;2022-09-04T02:32:45;99648.56;;;15.73;100.00
13080;BME280;6606;49.154;9.280;2022-09-04T02:35:19;99655.75;;;15.72;100.00
13080;BME280;6606;49.154;9.280;2022-09-04T02:37:55;99653.69;;;15.76;100.00
13080;BME280;6606;49.154;9.280;2022-09-04T02:40:30;99653.28;;;15.69;100.00
13080;BME280;6606;49.154;9.280;2022-09-04T02:43:12;99656.69;;;15.71;100.00
13080;BME280;6606;49.154;9.280;2022-09-04T02:45:47;99657.94;;;15.66;100.00
13080;BME280;6606;49.154;9.280;2022-09-04T02:48:19;99662.66;;;15.62;100.00
13080;BME280;6606;49.154;9.280;2022-09-04T02:50:58;99663.75;;;15.59;100.00
13080;BME280;6606;49.154;9.280;2022-09-04T02:53:33;99670.25;;;15.55;100.00
13080;BME280;6606;49.154;9.280;2022-09-04T02:56:18;99662.13;;;15.57;100.00
13080;BME280;6606;49.154;9.280;2022-09-04T02:58:53;99654.56;;;15.51;100.00
13080;BME280;6606;49.154;9.280;2022-09-04T03:01:27;99653.59;;;15.39;100.00
13080;BME280;6606;49.154;9.280;2022-09-04T03:04:02;99657.03;;;15.41;100.00
13080;BME280;6606;49.154;9.280;2022-09-04T03:06:43;99656.91;;;15.43;100.00
13080;BME280;6606;49.154;9.280;2022-09-04T03:09:16;99659.25;;;15.34;100.00
13080;BME280;6606;49.154;9.280;2022-09-04T03:11:48;99657.56;;;15.33;100.00
13080;BME280;6606;49.154;9.280;2022-09-04T03:14:21;99656.06;;;15.29;100.00
13080;BME280;6606;49.154;9.280;2022-09-04T03:16:57;99657.56;;;15.33;100.00
13080;BME280;6606;49.154;9.280;2022-09-04T03:19:30;99661.22;;;15.32;100.00
13080;BME280;6606;49.154;9.280;2022-09-04T03:22:05;99665.66;;;15.32;100.00
13080;BME280;6606;49.154;9.280;2022-09-04T03:27:20;99666.88;;;15.28;100.00
13080;BME280;6606;49.154;9.280;2022-09-04T03:29:53;99670.69;;;15.24;100.00
13080;BME280;6606;49.154;9.280;2022-09-04T03:32:33;99672.53;;;15.23;100.00
13080;BME280;6606;49.154;9.280;2022-09-04T03:35:04;99666.44;;;15.21;100.00
13080;BME280;6606;49.154;9.280;2022-09-04T03:40:34;99674.88;;;15.15;100.00
13080;BME280;6606;49.154;9.280;2022-09-04T03:43:22;99676.78;;;15.13;100.00
13080;BME280;6606;49.154;9.280;2022-09-04T03:45:59;99678.91;;;15.08;100.00
13080;BME280;6606;49.154;9.280;2022-09-04T03:48:44;99682.56;;;15.07;100.00
13080;BME280;6606;49.154;9.280;2022-09-04T03:51:17;99677.53;;;15.02;100.00
13080;BME280;6606;49.154;9.280;2022-09-04T03:53:59;99687.66;;;14.97;100.00
13080;BME280;6606;49.154;9.280;2022-09-04T03:56:43;99689.25;;;15.00;100.00
13080;BME280;6606;49.154;9.280;2022-09-04T03:59:42;99694.72;;;14.98;100.00
13080;BME280;6606;49.154;9.280;2022-09-04T04:02:17;99694.59;;;15.00;100.00
13080;BME280;6606;49.154;9.280;2022-09-04T04:04:57;99695.56;;;14.99;100.00
13080;BME280;6606;49.154;9.280;2022-09-04T04:07:35;99694.28;;;14.91;100.00
13080;BME280;6606;49.154;9.280;2022-09-04T04:10:20;99698.00;;;14.89;100.00
13080;BME280;6606;49.154;9.280;2022-09-04T04:13:13;99703.34;;;14.89;100.00
13080;BME280;6606;49.154;9.280;2022-09-04T04:15:56;99703.47;;;14.87;100.00
13080;BME280;6606;49.154;9.280;2022-09-04T04:18:46;99700.25;;;14.82;100.00
13080;BME280;6606;49.154;9.280;2022-09-04T04:21:27;99708.34;;;14.81;100.00
13080;BME280;6606;49.154;9.280;2022-09-04T04:24:22;99703.66;;;14.84;100.00
13080;BME280;6606;49.154;9.280;2022-09-04T04:27:04;99711.56;;;14.86;100.00
13080;BME280;6606;49.154;9.280;2022-09-04T04:29:50;99718.50;;;14.88;100.00
13080;BME280;6606;49.154;9.280;2022-09-04T04:32:35;99727.16;;;14.92;100.00
13080;BME280;6606;49.154;9.280;2022-09-04T04:35:17;99723.63;;;14.91;100.00
13080;BME280;6606;49.154;9.280;2022-09-04T04:37:59;99728.22;;;14.89;100.00
13080;BME280;6606;49.154;9.280;2022-09-04T04:40:39;99729.94;;;14.90;100.00
13080;BME280;6606;49.154;9.280;2022-09-04T04:43:14;99732.59;;;14.90;100.00
13080;BME280;6606;49.154;9.280;2022-09-04T04:45:50;99742.31;;;14.91;100.00
13080;BME280;6606;49.154;9.280;2022-09-04T04:54:48;99741.75;;;14.86;100.00
13080;BME280;6606;49.154;9.280;2022-09-04T04:57:25;99758.63;;;14.87;100.00
13080;BME280;6606;49.154;9.280;2022-09-04T05:00:04;99760.88;;;14.80;100.00
13080;BME280;6606;49.154;9.280;2022-09-04T05:02:38;99762.56;;;14.81;100.00
13080;BME280;6606;49.154;9.280;2022-09-04T05:05:11;99774.56;;;14.88;100.00
13080;BME280;6606;49.154;9.280;2022-09-04T05:07:47;99768.16;;;14.91;100.00
13080;BME280;6606;49.154;9.280;2022-09-04T05:10:19;99779.25;;;14.98;100.00
13080;BME280;6606;49.154;9.280;2022-09-04T05:12:54;99772.69;;;15.03;100.00
13080;BME280;6606;49.154;9.280;2022-09-04T05:15:30;99779.72;;;15.04;100.00
13080;BME280;6606;49.154;9.280;2022-09-04T05:18:04;99780.78;;;15.02;100.00
13080;BME280;6606;49.154;9.280;2022-09-04T05:20:41;99791.25;;;15.05;100.00
13080;BME280;6606;49.154;9.280;2022-09-04T05:23:21;99790.81;;;15.11;100.00
13080;BME280;6606;49.154;9.280;2022-09-04T05:25:53;99792.13;;;15.18;100.00
13080;BME280;6606;49.154;9.280;2022-09-04T05:28:32;99800.47;;;15.26;100.00
13080;BME280;6606;49.154;9.280;2022-09-04T05:31:10;99802.22;;;15.27;100.00
13080;BME280;6606;49.154;9.280;2022-09-04T05:33:44;99806.03;;;15.23;100.00
13080;BME280;6606;49.154;9.280;2022-09-04T05:36:18;99811.81;;;15.30;100.00
13080;BME280;6606;49.154;9.280;2022-09-04T05:38:57;99820.56;;;15.32;100.00
13080;BME280;6606;49.154;9.280;2022-09-04T05:41:38;99829.78;;;15.41;100.00
13080;BME280;6606;49.154;9.280;2022-09-04T05:44:23;99824.66;;;15.37;100.00
13080;BME280;6606;49.154;9.280;2022-09-04T05:47:08;99833.19;;;15.43;100.00
13080;BME280;6606;49.154;9.280;2022-09-04T05:49:57;99832.81;;;15.49;100.00
13080;BME280;6606;49.154;9.280;2022-09-04T05:52:35;99824.13;;;15.58;100.00
13080;BME280;6606;49.154;9.280;2022-09-04T05:58:32;99826.66;;;15.74;100.00
13080;BME280;6606;49.154;9.280;2022-09-04T06:01:10;99836.06;;;15.79;100.00
13080;BME280;6606;49.154;9.280;2022-09-04T06:06:46;99843.97;;;16.07;100.00
13080;BME280;6606;49.154;9.280;2022-09-04T06:09:38;99853.56;;;16.22;100.00
13080;BME280;6606;49.154;9.280;2022-09-04T06:12:48;99848.44;;;16.32;100.00
13080;BME280;6606;49.154;9.280;2022-09-04T06:15:26;99849.28;;;16.45;100.00
13080;BME280;6606;49.154;9.280;2022-09-04T06:18:19;99851.38;;;16.65;100.00
13080;BME280;6606;49.154;9.280;2022-09-04T06:21:14;99857.63;;;16.90;100.00
13080;BME280;6606;49.154;9.280;2022-09-04T06:23:54;99865.00;;;16.99;100.00
13080;BME280;6606;49.154;9.280;2022-09-04T06:26:44;99871.50;;;17.08;100.00
13080;BME280;6606;49.154;9.280;2022-09-04T06:29:32;99879.47;;;17.21;100.00
13080;BME280;6606;49.154;9.280;2022-09-04T06:32:16;99876.44;;;17.49;100.00
13080;BME280;6606;49.154;9.280;2022-09-04T06:35:09;99876.78;;;17.80;100.00
13080;BME280;6606;49.154;9.280;2022-09-04T06:37:46;99886.72;;;18.02;100.00
13080;BME280;6606;49.154;9.280;2022-09-04T06:40:28;99883.41;;;18.10;100.00
13080;BME280;6606;49.154;9.280;2022-09-04T06:43:11;99878.69;;;18.02;100.00
13080;BME280;6606;49.154;9.280;2022-09-04T06:45:51;99891.09;;;18.14;100.00
13080;BME280;6606;49.154;9.280;2022-09-04T06:48:33;99890.66;;;18.32;100.00
13080;BME280;6606;49.154;9.280;2022-09-04T06:51:10;99892.84;;;18.38;100.00
13080;BME280;6606;49.154;9.280;2022-09-04T06:53:45;99892.34;;;18.44;100.00
13080;BME280;6606;49.154;9.280;2022-09-04T06:56:27;99899.31;;;18.35;100.00
13080;BME280;6606;49.154;9.280;2022-09-04T06:59:16;99908.69;;;18.18;100.00
13080;BME280;6606;49.154;9.280;2022-09-04T07:01:57;99900.59;;;18.07;100.00
13080;BME280;6606;49.154;9.280;2022-09-04T07:04:50;99892.44;;;18.09;100.00
13080;BME280;6606;49.154;9.280;2022-09-04T07:07:26;99897.50;;;18.47;100.00
13080;BME280;6606;49.154;9.280;2022-09-04T07:09:59;99903.00;;;18.79;100.00
13080;BME280;6606;49.154;9.280;2022-09-04T07:15:45;99914.19;;;18.96;100.00
13080;BME280;6606;49.154;9.280;2022-09-04T07:18:27;99905.25;;;20.34;100.00
13080;BME280;6606;49.154;9.280;2022-09-04T07:21:04;99914.59;;;21.61;100.00
13080;BME280;6606;49.154;9.280;2022-09-04T07:23:40;99910.25;;;23.82;100.00
13080;BME280;6606;49.154;9.280;2022-09-04T07:26:19;99913.47;;;25.41;100.00
13080;BME280;6606;49.154;9.280;2022-09-04T07:29:08;99925.59;;;27.15;100.00
13080;BME280;6606;49.154;9.280;2022-09-04T07:31:40;99913.81;;;27.54;100.00
13080;BME280;6606;49.154;9.280;2022-09-04T07:34:15;99918.81;;;27.11;100.00
13080;BME280;6606;49.154;9.280;2022-09-04T07:36:50;99916.97;;;28.27;100.00
13080;BME280;6606;49.154;9.280;2022-09-04T07:39:23;99919.06;;;28.84;100.00
13080;BME280;6606;49.154;9.280;2022-09-04T07:41:59;99915.78;;;28.44;100.00
13080;BME280;6606;49.154;9.280;2022-09-04T07:44:34;99918.69;;;28.87;100.00
13080;BME280;6606;49.154;9.280;2022-09-04T07:47:09;99916.44;;;29.06;100.00
13080;BME280;6606;49.154;9.280;2022-09-04T07:49:48;99917.78;;;29.31;100.00
13080;BME280;6606;49.154;9.280;2022-09-04T07:52:40;99920.09;;;30.42;94.04
13080;BME280;6606;49.154;9.280;2022-09-04T07:55:16;99917.75;;;30.74;89.62
13080;BME280;6606;49.154;9.280;2022-09-04T07:58:08;99917.88;;;29.38;98.88
13080;BME280;6606;49.154;9.280;2022-09-04T08:00:52;99925.56;;;29.34;100.00
13080;BME280;6606;49.154;9.280;2022-09-04T08:03:42;99922.09;;;30.61;90.44
13080;BME280;6606;49.154;9.280;2022-09-04T08:06:18;99925.09;;;30.10;96.47
13080;BME280;6606;49.154;9.280;2022-09-04T08:09:27;99929.72;;;30.38;95.48
13080;BME280;6606;49.154;9.280;2022-09-04T08:12:16;99932.88;;;29.12;99.87
13080;BME280;6606;49.154;9.280;2022-09-04T08:14:54;99945.47;;;26.85;100.00
13080;BME280;6606;49.154;9.280;2022-09-04T08:17:37;99944.66;;;24.94;100.00
13080;BME280;6606;49.154;9.280;2022-09-04T08:20:16;99944.22;;;24.21;100.00
13080;BME280;6606;49.154;9.280;2022-09-04T08:22:56;99949.66;;;23.49;100.00
13080;BME280;6606;49.154;9.280;2022-09-04T08:25:27;99954.16;;;22.75;100.00
13080;BME280;6606;49.154;9.280;2022-09-04T08:28:11;99954.59;;;22.33;100.00
13080;BME280;6606;49.154;9.280;2022-09-04T08:30:48;99949.47;;;22.30;100.00
13080;BME280;6606;49.154;9.280;2022-09-04T08:33:36;99960.00;;;22.14;100.00
13080;BME280;6606;49.154;9.280;2022-09-04T08:36:15;99964.41;;;22.25;100.00
13080;BME280;6606;49.154;9.280;2022-09-04T08:38:56;99967.38;;;22.12;100.00
13080;BME280;6606;49.154;9.280;2022-09-04T08:50:53;99963.09;;;22.38;100.00
13080;BME280;6606;49.154;9.280;2022-09-04T08:53:55;99972.50;;;22.34;100.00
13080;BME280;6606;49.154;9.280;2022-09-04T08:56:34;99978.66;;;22.64;100.00
13080;BME280;6606;49.154;9.280;2022-09-04T08:59:34;99982.38;;;22.63;100.00
13080;BME280;6606;49.154;9.280;2022-09-04T09:05:35;99976.47;;;22.87;100.00
13080;BME280;6606;49.154;9.280;2022-09-04T09:08:23;99964.88;;;23.04;100.00
13080;BME280;6606;49.154;9.280;2022-09-04T09:11:21;99968.25;;;22.79;100.00
13080;BME280;6606;49.154;9.280;2022-09-04T09:17:10;99970.09;;;22.78;100.00
13080;BME280;6606;49.154;9.280;2022-09-04T09:19:43;99968.25;;;23.16;100.00
13080;BME280;6606;49.154;9.280;2022-09-04T09:22:35;99969.97;;;23.35;100.00
13080;BME280;6606;49.154;9.280;2022-09-04T09:25:13;99959.28;;;23.34;100.00
13080;BME280;6606;49.154;9.280;2022-09-04T09:28:11;99966.06;;;23.47;100.00
13080;BME280;6606;49.154;9.280;2022-09-04T09:34:16;99963.34;;;23.65;100.00
13080;BME280;6606;49.154;9.280;2022-09-04T09:40:29;99963.84;;;23.79;100.00
13080;BME280;6606;49.154;9.280;2022-09-04T09:43:34;99959.22;;;24.15;100.00
13080;BME280;6606;49.154;9.280;2022-09-04T09:50:15;99954.75;;;24.50;100.00
13080;BME280;6606;49.154;9.280;2022-09-04T09:53:24;99949.56;;;24.91;100.00
13080;BME280;6606;49.154;9.280;2022-09-04T09:59:41;99945.91;;;24.74;100.00
13080;BME280;6606;49.154;9.280;2022-09-04T10:08:55;99954.16;;;25.33;100.00
13080;BME280;6606;49.154;9.280;2022-09-04T10:11:50;99953.03;;;25.09;100.00
13080;BME280;6606;49.154;9.280;2022-09-04T10:17:52;99952.28;;;25.25;100.00
13080;BME280;6606;49.154;9.280;2022-09-04T10:20:47;99952.31;;;25.58;100.00
13080;BME280;6606;49.154;9.280;2022-09-04T10:26:57;99949.56;;;25.33;100.00
13080;BME280;6606;49.154;9.280;2022-09-04T10:29:57;99945.72;;;25.60;100.00
13080;BME280;6606;49.154;9.280;2022-09-04T10:32:59;99944.47;;;24.88;100.00
13080;BME280;6606;49.154;9.280;2022-09-04T10:35:39;99953.75;;;24.77;100.00
13080;BME280;6606;49.154;9.280;2022-09-04T10:38:24;99947.25;;;24.70;100.00
13080;BME280;6606;49.154;9.280;2022-09-04T10:41:16;99946.53;;;24.60;100.00
13080;BME280;6606;49.154;9.280;2022-09-04T10:46:53;99935.66;;;25.28;100.00
13080;BME280;6606;49.154;9.280;2022-09-04T10:56:01;99938.41;;;25.61;100.00
13080;BME280;6606;49.154;9.280;2022-09-04T10:58:53;99931.00;;;25.87;100.00
13080;BME280;6606;49.154;9.280;2022-09-04T11:04:40;99936.44;;;26.20;100.00
13080;BME280;6606;49.154;9.280;2022-09-04T11:07:30;99925.03;;;26.17;100.00
13080;BME280;6606;49.154;9.280;2022-09-04T11:10:25;99935.03;;;26.32;100.00
13080;BME280;6606;49.154;9.280;2022-09-04T11:16:28;99934.84;;;26.59;100.00
13080;BME280;6606;49.154;9.280;2022-09-04T11:19:13;99921.94;;;26.44;100.00
13080;BME280;6606;49.154;9.280;2022-09-04T11:31:33;99916.31;;;26.46;97.14
13080;BME280;6606;49.154;9.280;2022-09-04T11:37:22;99923.19;;;26.25;98.70
13080;BME280;6606;49.154;9.280;2022-09-04T11:40:29;99921.81;;;26.21;99.93
13080;BME280;6606;49.154;9.280;2022-09-04T11:43:14;99914.47;;;26.46;91.74
13080;BME280;6606;49.154;9.280;2022-09-04T11:46:15;99916.97;;;26.64;100.00
13080;BME280;6606;49.154;9.280;2022-09-04T11:49:15;99914.38;;;26.79;85.18
13080;BME280;6606;49.154;9.280;2022-09-04T11:52:15;99911.50;;;26.81;88.85
13080;BME280;6606;49.154;9.280;2022-09-04T11:55:17;99910.63;;;27.19;84.01
13080;BME280;6606;49.154;9.280;2022-09-04T11:58:00;99910.25;;;27.23;87.08
13080;BME280;6606;49.154;9.280;2022-09-04T12:00:34;99917.50;;;27.07;89.15
13080;BME280;6606;49.154;9.280;2022-09-04T12:03:25;99911.06;;;27.00;85.16
13080;BME280;6606;49.154;9.280;2022-09-04T12:06:15;99915.09;;;27.04;87.02
13080;BME280;6606;49.154;9.280;2022-09-04T12:08:56;99918.88;;;27.34;88.45
13080;BME280;6606;49.154;9.280;2022-09-04T12:17:39;99912.38;;;27.04;91.20
13080;BME280;6606;49.154;9.280;2022-09-04T12:23:48;99921.56;;;27.66;86.89
13080;BME280;6606;49.154;9.280;2022-09-04T12:26:49;99915.75;;;27.69;86.79
13080;BME280;6606;49.154;9.280;2022-09-04T12:29:49;99915.84;;;27.75;92.66
13080;BME280;6606;49.154;9.280;2022-09-04T12:35:34;99913.09;;;27.83;84.23
13080;BME280;6606;49.154;9.280;2022-09-04T12:38:28;99910.56;;;27.82;81.38
13080;BME280;6606;49.154;9.280;2022-09-04T12:41:01;99905.56;;;28.09;81.76
13080;BME280;6606;49.154;9.280;2022-09-04T12:43:41;99904.69;;;27.93;82.79
13080;BME280;6606;49.154;9.280;2022-09-04T12:46:28;99912.19;;;27.68;79.98
13080;BME280;6606;49.154;9.280;2022-09-04T12:49:23;99905.72;;;27.92;77.90
13080;BME280;6606;49.154;9.280;2022-09-04T12:52:01;99909.66;;;28.04;73.54
13080;BME280;6606;49.154;9.280;2022-09-04T12:54:34;99914.19;;;27.97;76.09
13080;BME280;6606;49.154;9.280;2022-09-04T12:57:19;99915.88;;;27.98;77.77
13080;BME280;6606;49.154;9.280;2022-09-04T12:59:59;99908.22;;;28.17;71.35
13080;BME280;6606;49.154;9.280;2022-09-04T13:02:36;99917.34;;;28.39;75.31
13080;BME280;6606;49.154;9.280;2022-09-04T13:05:26;99911.22;;;28.22;78.72
13080;BME280;6606;49.154;9.280;2022-09-04T13:08:03;99914.25;;;28.27;78.92
13080;BME280;6606;49.154;9.280;2022-09-04T13:10:41;99912.25;;;28.36;76.95
13080;BME280;6606;49.154;9.280;2022-09-04T13:13:19;99911.28;;;28.66;75.93
13080;BME280;6606;49.154;9.280;2022-09-04T13:15:55;99912.97;;;28.67;69.95
13080;BME280;6606;49.154;9.280;2022-09-04T13:18:43;99908.72;;;28.80;72.32
13080;BME280;6606;49.154;9.280;2022-09-04T13:21:26;99907.72;;;28.66;67.56
13080;BME280;6606;49.154;9.280;2022-09-04T13:24:10;99912.81;;;28.31;60.74
13080;BME280;6606;49.154;9.280;2022-09-04T13:26:57;99910.25;;;28.15;65.85
13080;BME280;6606;49.154;9.280;2022-09-04T13:29:34;99910.81;;;28.48;70.14
13080;BME280;6606;49.154;9.280;2022-09-04T13:32:26;99911.28;;;28.52;64.12
13080;BME280;6606;49.154;9.280;2022-09-04T13:35:05;99910.44;;;28.66;63.64
13080;BME280;6606;49.154;9.280;2022-09-04T13:37:45;99914.09;;;28.73;61.18
13080;BME280;6606;49.154;9.280;2022-09-04T13:40:33;99918.47;;;29.04;59.32
13080;BME280;6606;49.154;9.280;2022-09-04T13:43:39;99909.00;;;28.85;53.18
13080;BME280;6606;49.154;9.280;2022-09-04T13:46:15;99903.91;;;29.11;56.73
13080;BME280;6606;49.154;9.280;2022-09-04T13:48:45;99910.28;;;29.19;53.89
13080;BME280;6606;49.154;9.280;2022-09-04T13:51:19;99906.56;;;28.75;56.75
13080;BME280;6606;49.154;9.280;2022-09-04T13:53:57;99908.63;;;28.43;53.96
13080;BME280;6606;49.154;9.280;2022-09-04T13:56:31;99903.66;;;28.62;57.62
13080;BME280;6606;49.154;9.280;2022-09-04T13:59:03;99896.81;;;29.02;55.50
13080;BME280;6606;49.154;9.280;2022-09-04T14:01:35;99900.09;;;28.61;54.56
13080;BME280;6606;49.154;9.280;2022-09-04T14:04:06;99900.13;;;28.98;57.10
13080;BME280;6606;49.154;9.280;2022-09-04T14:06:36;99895.72;;;29.11;60.73
13080;BME280;6606;49.154;9.280;2022-09-04T14:09:04;99892.31;;;29.09;56.99
13080;BME280;6606;49.154;9.280;2022-09-04T14:11:45;99904.50;;;28.47;54.88
13080;BME280;6606;49.154;9.280;2022-09-04T14:14:40;99899.25;;;28.61;55.46
13080;BME280;6606;49.154;9.280;2022-09-04T14:17:15;99905.41;;;28.40;56.06
13080;BME280;6606;49.154;9.280;2022-09-04T14:19:57;99899.78;;;28.71;53.22
13080;BME280;6606;49.154;9.280;2022-09-04T14:22:36;99903.66;;;28.77;56.29
13080;BME280;6606;49.154;9.280;2022-09-04T14:25:12;99905.56;;;28.98;55.17
13080;BME280;6606;49.154;9.280;2022-09-04T14:27:48;99903.28;;;29.31;54.74
13080;BME280;6606;49.154;9.280;2022-09-04T14:30:18;99904.72;;;29.27;54.31
13080;BME280;6606;49.154;9.280;2022-09-04T14:33:07;99897.31;;;28.91;52.72
13080;BME280;6606;49.154;9.280;2022-09-04T14:35:44;99903.63;;;28.91;53.59
13080;BME280;6606;49.154;9.280;2022-09-04T14:38:32;99904.72;;;28.61;55.82
13080;BME280;6606;49.154;9.280;2022-09-04T14:41:17;99903.00;;;28.60;54.86
13080;BME280;6606;49.154;9.280;2022-09-04T14:43:53;99902.78;;;28.91;54.52
13080;BME280;6606;49.154;9.280;2022-09-04T14:46:30;99898.44;;;28.97;54.96
13080;BME280;6606;49.154;9.280;2022-09-04T14:49:04;99909.00;;;28.70;54.59
13080;BME280;6606;49.154;9.280;2022-09-04T14:51:34;99903.34;;;28.86;54.49
13080;BME280;6606;49.154;9.280;2022-09-04T14:54:03;99904.94;;;29.10;55.87
13080;BME280;6606;49.154;9.280;2022-09-04T14:56:35;99907.75;;;29.17;53.92
13080;BME280;6606;49.154;9.280;2022-09-04T14:59:11;99902.56;;;29.22;53.13
13080;BME280;6606;49.154;9.280;2022-09-04T15:01:59;99900.88;;;28.91;53.20
13080;BME280;6606;49.154;9.280;2022-09-04T15:04:32;99908.59;;;29.03;55.61
13080;BME280;6606;49.154;9.280;2022-09-04T15:10:12;99896.94;;;29.09;55.61
13080;BME280;6606;49.154;9.280;2022-09-04T15:12:42;99898.88;;;28.64;54.56
13080;BME280;6606;49.154;9.280;2022-09-04T15:15:15;99893.47;;;28.85;54.81
13080;BME280;6606;49.154;9.280;2022-09-04T15:17:45;99893.81;;;28.97;53.84
13080;BME280;6606;49.154;9.280;2022-09-04T15:20:20;99888.50;;;28.74;52.64
13080;BME280;6606;49.154;9.280;2022-09-04T15:22:52;99883.25;;;29.24;52.38
13080;BME280;6606;49.154;9.280;2022-09-04T15:25:45;99886.44;;;29.27;53.16
13080;BME280;6606;49.154;9.280;2022-09-04T15:28:17;99891.16;;;29.19;53.76
13080;BME280;6606;49.154;9.280;2022-09-04T15:31:01;99888.63;;;29.17;52.61
13080;BME280;6606;49.154;9.280;2022-09-04T15:33:30;99881.34;;;28.73;53.69
13080;BME280;6606;49.154;9.280;2022-09-04T15:36:05;99885.00;;;28.80;54.84
13080;BME280;6606;49.154;9.280;2022-09-04T15:38:34;99880.50;;;28.87;53.32
13080;BME280;6606;49.154;9.280;2022-09-04T15:41:14;99886.50;;;28.83;54.03
13080;BME280;6606;49.154;9.280;2022-09-04T15:43:46;99881.69;;;29.00;53.12
13080;BME280;6606;49.154;9.280;2022-09-04T15:46:21;99890.66;;;29.08;52.16
13080;BME280;6606;49.154;9.280;2022-09-04T15:48:54;99884.91;;;28.88;52.78
13080;BME280;6606;49.154;9.280;2022-09-04T15:51:35;99876.78;;;29.10;50.88
13080;BME280;6606;49.154;9.280;2022-09-04T15:54:14;99870.09;;;28.98;53.58
13080;BME280;6606;49.154;9.280;2022-09-04T15:56:56;99871.81;;;28.99;52.42
13080;BME280;6606;49.154;9.280;2022-09-04T15:59:31;99870.66;;;28.57;53.59
13080;BME280;6606;49.154;9.280;2022-09-04T16:02:04;99872.50;;;28.41;55.69
13080;BME280;6606;49.154;9.280;2022-09-04T16:04:42;99874.94;;;28.36;54.74